sensor_id;sensor_type;location;lat;lon;timestamp;P1;durP1;ratioP1;P2;durP2;ratioP2
2011;SDS011;1009;51.436;6.972;2023-08-07T00:00:03;2.73;;;2.47;;
2011;SDS011;1009;51.436;6.972;2023-08-07T00:02:34;3.10;;;2.40;;
2011;SDS011;1009;51.436;6.972;2023-08-07T00:05:01;3.53;;;2.60;;
2011;SDS011;1009;51.436;6.972;2023-08-07T00:07:28;6.13;;;3.03;;
2011;SDS011;1009;51.436;6.972;2023-08-07T00:09:57;4.37;;;3.30;;
2011;SDS011;1009;51.436;6.972;2023-08-07T00:12:29;6.50;;;3.40;;
2011;SDS011;1009;51.436;6.972;2023-08-07T00:14:56;3.70;;;2.43;;
2011;SDS011;1009;51.436;6.972;2023-08-07T00:17:23;3.53;;;2.63;;
2011;SDS011;1009;51.436;6.972;2023-08-07T00:19:50;4.50;;;2.97;;
2011;SDS011;1009;51.436;6.972;2023-08-07T00:22:17;4.80;;;3.20;;
2011;SDS011;1009;51.436;6.972;2023-08-07T00:24:44;4.70;;;2.43;;
2011;SDS011;1009;51.436;6.972;2023-08-07T00:27:12;10.37;;;2.80;;
2011;SDS011;1009;51.436;6.972;2023-08-07T00:29:39;5.37;;;2.77;;
2011;SDS011;1009;51.436;6.972;2023-08-07T00:32:06;6.00;;;2.80;;
2011;SDS011;1009;51.436;6.972;2023-08-07T00:34:34;12.40;;;3.70;;
2011;SDS011;1009;51.436;6.972;2023-08-07T00:37:06;6.33;;;2.73;;
2011;SDS011;1009;51.436;6.972;2023-08-07T00:39:33;11.47;;;3.10;;
2011;SDS011;1009;51.436;6.972;2023-08-07T00:42:00;11.33;;;3.30;;
2011;SDS011;1009;51.436;6.972;2023-08-07T00:44:28;3.50;;;2.00;;
2011;SDS011;1009;51.436;6.972;2023-08-07T00:46:55;5.10;;;3.07;;
2011;SDS011;1009;51.436;6.972;2023-08-07T00:49:22;6.10;;;3.40;;
2011;SDS011;1009;51.436;6.972;2023-08-07T00:51:49;8.90;;;4.20;;
2011;SDS011;1009;51.436;6.972;2023-08-07T00:54:18;6.73;;;2.87;;
2011;SDS011;1009;51.436;6.972;2023-08-07T00:56:45;7.67;;;3.00;;
2011;SDS011;1009;51.436;6.972;2023-08-07T00:59:12;5.60;;;3.20;;
2011;SDS011;1009;51.436;6.972;2023-08-07T01:01:41;7.97;;;4.10;;
2011;SDS011;1009;51.436;6.972;2023-08-07T01:04:08;3.63;;;3.03;;
2011;SDS011;1009;51.436;6.972;2023-08-07T01:06:34;8.10;;;3.00;;
2011;SDS011;1009;51.436;6.972;2023-08-07T01:09:01;9.73;;;3.70;;
2011;SDS011;1009;51.436;6.972;2023-08-07T01:11:30;7.50;;;3.67;;
2011;SDS011;1009;51.436;6.972;2023-08-07T01:14:08;9.40;;;2.90;;
2011;SDS011;1009;51.436;6.972;2023-08-07T01:16:45;5.70;;;2.63;;
2011;SDS011;1009;51.436;6.972;2023-08-07T01:19:19;6.80;;;3.00;;
2011;SDS011;1009;51.436;6.972;2023-08-07T01:21:54;6.47;;;2.70;;
2011;SDS011;1009;51.436;6.972;2023-08-07T01:24:30;7.37;;;2.90;;
2011;SDS011;1009;51.436;6.972;2023-08-07T01:26:57;7.17;;;3.00;;
2011;SDS011;1009;51.436;6.972;2023-08-07T01:29:35;11.43;;;3.50;;
2011;SDS011;1009;51.436;6.972;2023-08-07T01:32:08;5.00;;;3.60;;
2011;SDS011;1009;51.436;6.972;2023-08-07T01:34:37;10.30;;;2.70;;
2011;SDS011;1009;51.436;6.972;2023-08-07T01:37:08;12.43;;;3.43;;
2011;SDS011;1009;51.436;6.972;2023-08-07T01:39:36;11.70;;;3.53;;
2011;SDS011;1009;51.436;6.972;2023-08-07T01:42:04;10.60;;;3.30;;
2011;SDS011;1009;51.436;6.972;2023-08-07T01:44:32;5.87;;;3.10;;
2011;SDS011;1009;51.436;6.972;2023-08-07T01:46:59;6.57;;;3.20;;
2011;SDS011;1009;51.436;6.972;2023-08-07T01:49:26;7.73;;;3.07;;
2011;SDS011;1009;51.436;6.972;2023-08-07T01:51:52;6.50;;;2.70;;
2011;SDS011;1009;51.436;6.972;2023-08-07T01:54:21;7.37;;;2.33;;
2011;SDS011;1009;51.436;6.972;2023-08-07T01:56:47;3.70;;;2.47;;
2011;SDS011;1009;51.436;6.972;2023-08-07T01:59:14;6.70;;;2.80;;
2011;SDS011;1009;51.436;6.972;2023-08-07T02:01:41;11.53;;;3.20;;
2011;SDS011;1009;51.436;6.972;2023-08-07T02:04:08;35.97;;;4.63;;
2011;SDS011;1009;51.436;6.972;2023-08-07T02:06:34;7.63;;;2.57;;
2011;SDS011;1009;51.436;6.972;2023-08-07T02:09:01;5.33;;;2.97;;
2011;SDS011;1009;51.436;6.972;2023-08-07T02:11:29;7.00;;;2.97;;
2011;SDS011;1009;51.436;6.972;2023-08-07T02:13:56;5.57;;;2.67;;
2011;SDS011;1009;51.436;6.972;2023-08-07T02:16:23;4.17;;;2.40;;
2011;SDS011;1009;51.436;6.972;2023-08-07T02:18:50;13.17;;;2.50;;
2011;SDS011;1009;51.436;6.972;2023-08-07T02:21:16;4.57;;;3.00;;
2011;SDS011;1009;51.436;6.972;2023-08-07T02:23:43;6.77;;;2.73;;
2011;SDS011;1009;51.436;6.972;2023-08-07T02:26:10;2.40;;;1.90;;
2011;SDS011;1009;51.436;6.972;2023-08-07T02:28:38;6.83;;;1.80;;
2011;SDS011;1009;51.436;6.972;2023-08-07T02:31:05;2.70;;;2.03;;
2011;SDS011;1009;51.436;6.972;2023-08-07T02:33:32;2.20;;;1.27;;
2011;SDS011;1009;51.436;6.972;2023-08-07T02:35:59;3.23;;;1.93;;
2011;SDS011;1009;51.436;6.972;2023-08-07T02:38:26;2.03;;;1.77;;
2011;SDS011;1009;51.436;6.972;2023-08-07T02:40:53;3.80;;;2.30;;
2011;SDS011;1009;51.436;6.972;2023-08-07T02:43:20;3.80;;;2.87;;
2011;SDS011;1009;51.436;6.972;2023-08-07T02:45:48;18.30;;;3.30;;
2011;SDS011;1009;51.436;6.972;2023-08-07T02:48:15;9.93;;;3.60;;
2011;SDS011;1009;51.436;6.972;2023-08-07T02:50:42;4.33;;;3.27;;
2011;SDS011;1009;51.436;6.972;2023-08-07T02:53:09;13.53;;;4.63;;
2011;SDS011;1009;51.436;6.972;2023-08-07T02:55:37;6.60;;;3.70;;
2011;SDS011;1009;51.436;6.972;2023-08-07T02:58:04;5.80;;;3.47;;
2011;SDS011;1009;51.436;6.972;2023-08-07T03:00:31;6.33;;;2.50;;
2011;SDS011;1009;51.436;6.972;2023-08-07T03:03:01;5.60;;;2.23;;
2011;SDS011;1009;51.436;6.972;2023-08-07T03:05:28;9.90;;;3.40;;
2011;SDS011;1009;51.436;6.972;2023-08-07T03:07:55;8.23;;;2.80;;
2011;SDS011;1009;51.436;6.972;2023-08-07T03:10:22;4.53;;;2.03;;
2011;SDS011;1009;51.436;6.972;2023-08-07T03:12:49;9.40;;;2.37;;
2011;SDS011;1009;51.436;6.972;2023-08-07T03:15:16;6.17;;;2.83;;
2011;SDS011;1009;51.436;6.972;2023-08-07T03:17:43;6.37;;;3.57;;
2011;SDS011;1009;51.436;6.972;2023-08-07T03:20:11;6.90;;;3.07;;
2011;SDS011;1009;51.436;6.972;2023-08-07T03:22:38;5.33;;;3.50;;
2011;SDS011;1009;51.436;6.972;2023-08-07T03:25:06;8.37;;;3.40;;
2011;SDS011;1009;51.436;6.972;2023-08-07T03:27:33;8.33;;;3.50;;
2011;SDS011;1009;51.436;6.972;2023-08-07T03:30:00;6.70;;;3.57;;
2011;SDS011;1009;51.436;6.972;2023-08-07T03:32:27;13.37;;;3.53;;
2011;SDS011;1009;51.436;6.972;2023-08-07T03:34:54;7.20;;;3.40;;
2011;SDS011;1009;51.436;6.972;2023-08-07T03:37:22;6.50;;;3.13;;
2011;SDS011;1009;51.436;6.972;2023-08-07T03:39:49;6.03;;;3.47;;
2011;SDS011;1009;51.436;6.972;2023-08-07T03:42:16;8.00;;;3.00;;
2011;SDS011;1009;51.436;6.972;2023-08-07T03:44:43;5.23;;;2.63;;
2011;SDS011;1009;51.436;6.972;2023-08-07T03:47:10;9.57;;;2.63;;
2011;SDS011;1009;51.436;6.972;2023-08-07T03:49:36;5.17;;;2.97;;
2011;SDS011;1009;51.436;6.972;2023-08-07T03:52:04;10.23;;;4.73;;
2011;SDS011;1009;51.436;6.972;2023-08-07T03:54:32;6.57;;;3.57;;
2011;SDS011;1009;51.436;6.972;2023-08-07T03:56:59;12.93;;;4.03;;
2011;SDS011;1009;51.436;6.972;2023-08-07T03:59:26;9.50;;;5.23;;
2011;SDS011;1009;51.436;6.972;2023-08-07T04:01:53;7.30;;;4.73;;
2011;SDS011;1009;51.436;6.972;2023-08-07T04:04:20;6.30;;;4.00;;
2011;SDS011;1009;51.436;6.972;2023-08-07T04:06:47;17.17;;;5.00;;
2011;SDS011;1009;51.436;6.972;2023-08-07T04:09:14;13.43;;;4.43;;
2011;SDS011;1009;51.436;6.972;2023-08-07T04:11:43;17.83;;;4.30;;
2011;SDS011;1009;51.436;6.972;2023-08-07T04:14:10;8.27;;;3.87;;
2011;SDS011;1009;51.436;6.972;2023-08-07T04:16:37;9.57;;;3.50;;
2011;SDS011;1009;51.436;6.972;2023-08-07T04:19:04;4.70;;;2.90;;
2011;SDS011;1009;51.436;6.972;2023-08-07T04:21:31;8.60;;;2.70;;
2011;SDS011;1009;51.436;6.972;2023-08-07T04:23:58;8.77;;;3.50;;
2011;SDS011;1009;51.436;6.972;2023-08-07T04:26:26;6.40;;;3.00;;
2011;SDS011;1009;51.436;6.972;2023-08-07T04:28:54;12.40;;;3.90;;
2011;SDS011;1009;51.436;6.972;2023-08-07T04:31:21;13.07;;;3.77;;
2011;SDS011;1009;51.436;6.972;2023-08-07T04:33:47;7.00;;;3.30;;
2011;SDS011;1009;51.436;6.972;2023-08-07T04:36:14;16.43;;;4.20;;
2011;SDS011;1009;51.436;6.972;2023-08-07T04:38:41;7.90;;;2.77;;
2011;SDS011;1009;51.436;6.972;2023-08-07T04:41:08;6.27;;;3.10;;
2011;SDS011;1009;51.436;6.972;2023-08-07T04:43:35;9.00;;;3.03;;
2011;SDS011;1009;51.436;6.972;2023-08-07T04:46:03;4.53;;;2.97;;
2011;SDS011;1009;51.436;6.972;2023-08-07T04:48:30;6.50;;;2.93;;
2011;SDS011;1009;51.436;6.972;2023-08-07T04:50:58;6.60;;;2.77;;
2011;SDS011;1009;51.436;6.972;2023-08-07T04:53:24;9.07;;;3.40;;
2011;SDS011;1009;51.436;6.972;2023-08-07T04:55:51;9.13;;;2.67;;
2011;SDS011;1009;51.436;6.972;2023-08-07T04:58:18;7.00;;;2.23;;
2011;SDS011;1009;51.436;6.972;2023-08-07T05:00:45;9.80;;;2.33;;
2011;SDS011;1009;51.436;6.972;2023-08-07T05:03:13;14.23;;;3.10;;
2011;SDS011;1009;51.436;6.972;2023-08-07T05:05:43;6.10;;;1.80;;
2011;SDS011;1009;51.436;6.972;2023-08-07T05:08:10;5.53;;;2.20;;
2011;SDS011;1009;51.436;6.972;2023-08-07T05:10:37;13.73;;;2.87;;
2011;SDS011;1009;51.436;6.972;2023-08-07T05:13:03;4.90;;;2.20;;
2011;SDS011;1009;51.436;6.972;2023-08-07T05:15:30;11.63;;;2.77;;
2011;SDS011;1009;51.436;6.972;2023-08-07T05:17:57;7.40;;;2.90;;
2011;SDS011;1009;51.436;6.972;2023-08-07T05:20:25;7.43;;;2.10;;
2011;SDS011;1009;51.436;6.972;2023-08-07T05:22:52;9.87;;;2.47;;
2011;SDS011;1009;51.436;6.972;2023-08-07T05:25:21;6.47;;;2.30;;
2011;SDS011;1009;51.436;6.972;2023-08-07T05:27:47;5.50;;;1.90;;
2011;SDS011;1009;51.436;6.972;2023-08-07T05:30:14;7.83;;;2.37;;
2011;SDS011;1009;51.436;6.972;2023-08-07T05:32:41;3.40;;;2.20;;
2011;SDS011;1009;51.436;6.972;2023-08-07T05:35:08;5.90;;;2.30;;
2011;SDS011;1009;51.436;6.972;2023-08-07T05:37:37;7.73;;;3.00;;
2011;SDS011;1009;51.436;6.972;2023-08-07T05:40:04;4.97;;;2.97;;
2011;SDS011;1009;51.436;6.972;2023-08-07T05:42:32;6.00;;;2.60;;
2011;SDS011;1009;51.436;6.972;2023-08-07T05:44:59;6.10;;;2.87;;
2011;SDS011;1009;51.436;6.972;2023-08-07T05:47:26;5.17;;;4.13;;
2011;SDS011;1009;51.436;6.972;2023-08-07T05:49:53;9.63;;;2.50;;
2011;SDS011;1009;51.436;6.972;2023-08-07T05:52:20;7.67;;;2.70;;
2011;SDS011;1009;51.436;6.972;2023-08-07T05:54:48;7.90;;;3.20;;
2011;SDS011;1009;51.436;6.972;2023-08-07T05:57:15;4.60;;;2.97;;
2011;SDS011;1009;51.436;6.972;2023-08-07T05:59:43;5.03;;;2.73;;
2011;SDS011;1009;51.436;6.972;2023-08-07T06:02:10;5.37;;;2.47;;
2011;SDS011;1009;51.436;6.972;2023-08-07T06:04:37;7.00;;;2.27;;
2011;SDS011;1009;51.436;6.972;2023-08-07T06:07:05;8.00;;;2.80;;
2011;SDS011;1009;51.436;6.972;2023-08-07T06:09:33;8.00;;;2.93;;
2011;SDS011;1009;51.436;6.972;2023-08-07T06:12:03;9.07;;;3.23;;
2011;SDS011;1009;51.436;6.972;2023-08-07T06:14:30;8.13;;;3.47;;
2011;SDS011;1009;51.436;6.972;2023-08-07T06:16:57;7.30;;;4.30;;
2011;SDS011;1009;51.436;6.972;2023-08-07T06:19:26;12.43;;;4.27;;
2011;SDS011;1009;51.436;6.972;2023-08-07T06:21:53;11.17;;;4.47;;
2011;SDS011;1009;51.436;6.972;2023-08-07T06:24:20;14.23;;;4.70;;
2011;SDS011;1009;51.436;6.972;2023-08-07T06:26:47;12.20;;;3.57;;
2011;SDS011;1009;51.436;6.972;2023-08-07T06:29:15;7.30;;;3.80;;
2011;SDS011;1009;51.436;6.972;2023-08-07T06:31:42;10.53;;;4.10;;
2011;SDS011;1009;51.436;6.972;2023-08-07T06:34:09;8.13;;;3.90;;
2011;SDS011;1009;51.436;6.972;2023-08-07T06:36:36;10.63;;;3.73;;
2011;SDS011;1009;51.436;6.972;2023-08-07T06:39:02;8.60;;;4.90;;
2011;SDS011;1009;51.436;6.972;2023-08-07T06:41:29;5.30;;;3.40;;
2011;SDS011;1009;51.436;6.972;2023-08-07T06:43:56;7.27;;;3.30;;
2011;SDS011;1009;51.436;6.972;2023-08-07T06:46:24;5.73;;;3.90;;
2011;SDS011;1009;51.436;6.972;2023-08-07T06:48:53;7.93;;;4.07;;
2011;SDS011;1009;51.436;6.972;2023-08-07T06:51:19;7.47;;;3.60;;
2011;SDS011;1009;51.436;6.972;2023-08-07T06:53:46;6.60;;;4.07;;
2011;SDS011;1009;51.436;6.972;2023-08-07T06:56:13;5.10;;;3.27;;
2011;SDS011;1009;51.436;6.972;2023-08-07T06:58:39;8.90;;;3.70;;
2011;SDS011;1009;51.436;6.972;2023-08-07T07:01:06;4.03;;;2.63;;
2011;SDS011;1009;51.436;6.972;2023-08-07T07:03:34;5.60;;;3.20;;
2011;SDS011;1009;51.436;6.972;2023-08-07T07:06:01;4.47;;;3.10;;
2011;SDS011;1009;51.436;6.972;2023-08-07T07:08:28;11.97;;;3.47;;
2011;SDS011;1009;51.436;6.972;2023-08-07T07:10:55;15.57;;;4.17;;
2011;SDS011;1009;51.436;6.972;2023-08-07T07:13:23;7.70;;;3.90;;
2011;SDS011;1009;51.436;6.972;2023-08-07T07:15:52;6.50;;;3.70;;
2011;SDS011;1009;51.436;6.972;2023-08-07T07:18:19;4.77;;;3.20;;
2011;SDS011;1009;51.436;6.972;2023-08-07T07:20:48;6.63;;;3.30;;
2011;SDS011;1009;51.436;6.972;2023-08-07T07:23:22;7.03;;;3.73;;
2011;SDS011;1009;51.436;6.972;2023-08-07T07:25:49;8.43;;;4.00;;
2011;SDS011;1009;51.436;6.972;2023-08-07T07:28:15;9.80;;;3.70;;
2011;SDS011;1009;51.436;6.972;2023-08-07T07:30:42;12.73;;;4.30;;
2011;SDS011;1009;51.436;6.972;2023-08-07T07:33:09;6.23;;;4.00;;
2011;SDS011;1009;51.436;6.972;2023-08-07T07:35:37;8.97;;;3.93;;
2011;SDS011;1009;51.436;6.972;2023-08-07T07:38:05;8.33;;;3.80;;
2011;SDS011;1009;51.436;6.972;2023-08-07T07:40:33;5.67;;;3.50;;
2011;SDS011;1009;51.436;6.972;2023-08-07T07:43:00;8.60;;;3.90;;
2011;SDS011;1009;51.436;6.972;2023-08-07T07:45:27;5.13;;;3.87;;
2011;SDS011;1009;51.436;6.972;2023-08-07T07:47:54;6.90;;;3.70;;
2011;SDS011;1009;51.436;6.972;2023-08-07T07:50:21;3.40;;;3.07;;
2011;SDS011;1009;51.436;6.972;2023-08-07T07:52:48;9.43;;;4.87;;
2011;SDS011;1009;51.436;6.972;2023-08-07T07:55:16;8.40;;;3.10;;
2011;SDS011;1009;51.436;6.972;2023-08-07T07:57:43;6.10;;;3.30;;
2011;SDS011;1009;51.436;6.972;2023-08-07T08:00:10;5.80;;;2.97;;
2011;SDS011;1009;51.436;6.972;2023-08-07T08:02:39;5.20;;;3.10;;
2011;SDS011;1009;51.436;6.972;2023-08-07T08:05:08;6.47;;;3.53;;
2011;SDS011;1009;51.436;6.972;2023-08-07T08:07:35;5.83;;;3.70;;
2011;SDS011;1009;51.436;6.972;2023-08-07T08:10:04;6.77;;;2.80;;
2011;SDS011;1009;51.436;6.972;2023-08-07T08:12:33;4.57;;;3.30;;
2011;SDS011;1009;51.436;6.972;2023-08-07T08:15:00;5.80;;;3.33;;
2011;SDS011;1009;51.436;6.972;2023-08-07T08:17:27;12.07;;;4.40;;
2011;SDS011;1009;51.436;6.972;2023-08-07T08:19:54;8.43;;;3.60;;
2011;SDS011;1009;51.436;6.972;2023-08-07T08:22:21;7.30;;;4.37;;
2011;SDS011;1009;51.436;6.972;2023-08-07T08:24:49;7.43;;;4.10;;
2011;SDS011;1009;51.436;6.972;2023-08-07T08:27:15;6.27;;;3.30;;
2011;SDS011;1009;51.436;6.972;2023-08-07T08:29:44;6.37;;;3.37;;
2011;SDS011;1009;51.436;6.972;2023-08-07T08:32:11;6.97;;;4.47;;
2011;SDS011;1009;51.436;6.972;2023-08-07T08:34:38;7.70;;;3.77;;
2011;SDS011;1009;51.436;6.972;2023-08-07T08:37:05;7.43;;;3.50;;
2011;SDS011;1009;51.436;6.972;2023-08-07T08:39:33;7.43;;;4.47;;
2011;SDS011;1009;51.436;6.972;2023-08-07T08:41:59;8.93;;;3.67;;
2011;SDS011;1009;51.436;6.972;2023-08-07T08:44:27;6.60;;;4.10;;
2011;SDS011;1009;51.436;6.972;2023-08-07T08:46:59;6.70;;;4.50;;
2011;SDS011;1009;51.436;6.972;2023-08-07T08:49:28;9.27;;;4.47;;
2011;SDS011;1009;51.436;6.972;2023-08-07T08:51:58;13.70;;;4.13;;
2011;SDS011;1009;51.436;6.972;2023-08-07T08:54:26;11.57;;;3.87;;
2011;SDS011;1009;51.436;6.972;2023-08-07T08:56:53;10.00;;;3.40;;
2011;SDS011;1009;51.436;6.972;2023-08-07T08:59:21;7.97;;;2.93;;
2011;SDS011;1009;51.436;6.972;2023-08-07T09:01:49;8.37;;;3.77;;
2011;SDS011;1009;51.436;6.972;2023-08-07T09:04:19;16.73;;;4.00;;
2011;SDS011;1009;51.436;6.972;2023-08-07T09:06:46;8.03;;;4.47;;
2011;SDS011;1009;51.436;6.972;2023-08-07T09:09:13;7.90;;;4.27;;
2011;SDS011;1009;51.436;6.972;2023-08-07T09:11:41;7.33;;;3.60;;
2011;SDS011;1009;51.436;6.972;2023-08-07T09:14:08;17.63;;;4.80;;
2011;SDS011;1009;51.436;6.972;2023-08-07T09:16:38;14.27;;;4.90;;
2011;SDS011;1009;51.436;6.972;2023-08-07T09:19:05;9.73;;;4.10;;
2011;SDS011;1009;51.436;6.972;2023-08-07T09:21:34;11.23;;;3.67;;
2011;SDS011;1009;51.436;6.972;2023-08-07T09:24:01;7.60;;;3.93;;
2011;SDS011;1009;51.436;6.972;2023-08-07T09:26:28;12.60;;;4.40;;
2011;SDS011;1009;51.436;6.972;2023-08-07T09:28:55;12.13;;;3.87;;
2011;SDS011;1009;51.436;6.972;2023-08-07T09:31:24;13.27;;;3.53;;
2011;SDS011;1009;51.436;6.972;2023-08-07T09:33:52;10.13;;;3.67;;
2011;SDS011;1009;51.436;6.972;2023-08-07T09:36:19;8.90;;;4.10;;
2011;SDS011;1009;51.436;6.972;2023-08-07T09:38:50;13.27;;;3.70;;
2011;SDS011;1009;51.436;6.972;2023-08-07T09:41:17;10.33;;;3.80;;
2011;SDS011;1009;51.436;6.972;2023-08-07T09:43:45;10.10;;;3.03;;
2011;SDS011;1009;51.436;6.972;2023-08-07T09:46:11;10.87;;;3.07;;
2011;SDS011;1009;51.436;6.972;2023-08-07T09:48:39;7.60;;;3.13;;
2011;SDS011;1009;51.436;6.972;2023-08-07T09:51:06;5.47;;;2.40;;
2011;SDS011;1009;51.436;6.972;2023-08-07T09:53:33;3.77;;;2.10;;
2011;SDS011;1009;51.436;6.972;2023-08-07T09:56:02;5.27;;;2.30;;
2011;SDS011;1009;51.436;6.972;2023-08-07T09:58:29;3.53;;;2.57;;
2011;SDS011;1009;51.436;6.972;2023-08-07T10:00:58;8.40;;;3.67;;
2011;SDS011;1009;51.436;6.972;2023-08-07T10:03:26;12.40;;;3.33;;
2011;SDS011;1009;51.436;6.972;2023-08-07T10:05:53;17.50;;;4.30;;
2011;SDS011;1009;51.436;6.972;2023-08-07T10:08:21;9.73;;;3.73;;
2011;SDS011;1009;51.436;6.972;2023-08-07T10:10:49;7.10;;;3.77;;
2011;SDS011;1009;51.436;6.972;2023-08-07T10:13:17;8.00;;;4.80;;
2011;SDS011;1009;51.436;6.972;2023-08-07T10:15:45;11.63;;;3.73;;
2011;SDS011;1009;51.436;6.972;2023-08-07T10:18:13;11.23;;;3.90;;
2011;SDS011;1009;51.436;6.972;2023-08-07T10:20:40;13.70;;;3.40;;
2011;SDS011;1009;51.436;6.972;2023-08-07T10:23:09;6.73;;;2.93;;
2011;SDS011;1009;51.436;6.972;2023-08-07T10:25:37;7.97;;;3.40;;
2011;SDS011;1009;51.436;6.972;2023-08-07T10:28:06;9.50;;;3.43;;
2011;SDS011;1009;51.436;6.972;2023-08-07T10:30:38;5.50;;;3.20;;
2011;SDS011;1009;51.436;6.972;2023-08-07T10:33:06;10.80;;;3.70;;
2011;SDS011;1009;51.436;6.972;2023-08-07T10:35:35;6.40;;;2.97;;
2011;SDS011;1009;51.436;6.972;2023-08-07T10:38:05;5.17;;;2.43;;
2011;SDS011;1009;51.436;6.972;2023-08-07T10:40:33;9.40;;;3.20;;
2011;SDS011;1009;51.436;6.972;2023-08-07T10:43:11;9.73;;;3.37;;
2011;SDS011;1009;51.436;6.972;2023-08-07T10:45:40;5.93;;;2.43;;
2011;SDS011;1009;51.436;6.972;2023-08-07T10:48:08;8.73;;;2.80;;
2011;SDS011;1009;51.436;6.972;2023-08-07T10:50:48;6.20;;;3.10;;
2011;SDS011;1009;51.436;6.972;2023-08-07T10:53:20;7.73;;;3.50;;
2011;SDS011;1009;51.436;6.972;2023-08-07T10:55:54;6.30;;;3.20;;
2011;SDS011;1009;51.436;6.972;2023-08-07T10:58:23;8.27;;;3.50;;
2011;SDS011;1009;51.436;6.972;2023-08-07T11:00:52;7.20;;;2.97;;
2011;SDS011;1009;51.436;6.972;2023-08-07T11:03:34;10.43;;;3.80;;
2011;SDS011;1009;51.436;6.972;2023-08-07T11:06:01;12.57;;;3.93;;
2011;SDS011;1009;51.436;6.972;2023-08-07T11:08:28;13.10;;;3.73;;
2011;SDS011;1009;51.436;6.972;2023-08-07T11:10:56;9.73;;;3.80;;
2011;SDS011;1009;51.436;6.972;2023-08-07T11:13:30;10.53;;;3.83;;
2011;SDS011;1009;51.436;6.972;2023-08-07T11:15:58;16.17;;;5.73;;
2011;SDS011;1009;51.436;6.972;2023-08-07T11:18:25;13.23;;;4.40;;
2011;SDS011;1009;51.436;6.972;2023-08-07T11:20:52;11.47;;;5.00;;
2011;SDS011;1009;51.436;6.972;2023-08-07T11:23:22;12.43;;;5.03;;
2011;SDS011;1009;51.436;6.972;2023-08-07T11:25:49;12.20;;;4.07;;
2011;SDS011;1009;51.436;6.972;2023-08-07T11:28:17;7.77;;;4.17;;
2011;SDS011;1009;51.436;6.972;2023-08-07T11:30:44;7.83;;;3.83;;
2011;SDS011;1009;51.436;6.972;2023-08-07T11:33:13;5.27;;;3.50;;
2011;SDS011;1009;51.436;6.972;2023-08-07T11:35:42;6.10;;;3.50;;
2011;SDS011;1009;51.436;6.972;2023-08-07T11:38:09;5.17;;;2.90;;
2011;SDS011;1009;51.436;6.972;2023-08-07T11:40:36;8.97;;;3.60;;
2011;SDS011;1009;51.436;6.972;2023-08-07T11:43:03;7.63;;;3.20;;
2011;SDS011;1009;51.436;6.972;2023-08-07T11:45:30;3.67;;;2.13;;
2011;SDS011;1009;51.436;6.972;2023-08-07T11:47:57;4.97;;;2.33;;
2011;SDS011;1009;51.436;6.972;2023-08-07T11:50:25;4.07;;;2.17;;
2011;SDS011;1009;51.436;6.972;2023-08-07T11:52:54;7.33;;;3.57;;
2011;SDS011;1009;51.436;6.972;2023-08-07T11:55:25;8.70;;;3.70;;
2011;SDS011;1009;51.436;6.972;2023-08-07T11:57:55;5.70;;;2.90;;
2011;SDS011;1009;51.436;6.972;2023-08-07T12:00:24;11.50;;;3.30;;
2011;SDS011;1009;51.436;6.972;2023-08-07T12:02:52;11.33;;;2.80;;
2011;SDS011;1009;51.436;6.972;2023-08-07T12:05:19;5.40;;;2.30;;
2011;SDS011;1009;51.436;6.972;2023-08-07T12:07:49;3.37;;;2.03;;
2011;SDS011;1009;51.436;6.972;2023-08-07T12:10:17;14.03;;;2.87;;
2011;SDS011;1009;51.436;6.972;2023-08-07T12:12:44;9.93;;;2.70;;
2011;SDS011;1009;51.436;6.972;2023-08-07T12:15:11;5.13;;;2.33;;
2011;SDS011;1009;51.436;6.972;2023-08-07T12:17:38;3.57;;;2.00;;
2011;SDS011;1009;51.436;6.972;2023-08-07T12:20:05;7.47;;;1.73;;
2011;SDS011;1009;51.436;6.972;2023-08-07T12:22:35;4.10;;;1.90;;
2011;SDS011;1009;51.436;6.972;2023-08-07T12:25:04;2.80;;;1.60;;
2011;SDS011;1009;51.436;6.972;2023-08-07T12:27:31;11.13;;;1.90;;
2011;SDS011;1009;51.436;6.972;2023-08-07T12:29:58;6.30;;;1.93;;
2011;SDS011;1009;51.436;6.972;2023-08-07T12:32:24;4.80;;;3.00;;
2011;SDS011;1009;51.436;6.972;2023-08-07T12:34:51;2.43;;;1.70;;
2011;SDS011;1009;51.436;6.972;2023-08-07T12:37:18;6.53;;;2.07;;
2011;SDS011;1009;51.436;6.972;2023-08-07T12:39:45;3.60;;;1.50;;
2011;SDS011;1009;51.436;6.972;2023-08-07T12:42:13;6.97;;;1.53;;
2011;SDS011;1009;51.436;6.972;2023-08-07T12:44:40;3.00;;;1.50;;
2011;SDS011;1009;51.436;6.972;2023-08-07T12:47:09;2.20;;;1.60;;
2011;SDS011;1009;51.436;6.972;2023-08-07T12:49:36;7.60;;;2.47;;
2011;SDS011;1009;51.436;6.972;2023-08-07T12:52:03;2.40;;;1.70;;
2011;SDS011;1009;51.436;6.972;2023-08-07T12:54:30;2.60;;;1.43;;
2011;SDS011;1009;51.436;6.972;2023-08-07T12:56:57;6.73;;;1.97;;
2011;SDS011;1009;51.436;6.972;2023-08-07T12:59:25;4.00;;;1.60;;
2011;SDS011;1009;51.436;6.972;2023-08-07T13:01:52;4.67;;;1.47;;
2011;SDS011;1009;51.436;6.972;2023-08-07T13:04:19;7.53;;;1.30;;
2011;SDS011;1009;51.436;6.972;2023-08-07T13:06:46;4.53;;;1.90;;
2011;SDS011;1009;51.436;6.972;2023-08-07T13:09:14;7.33;;;1.73;;
2011;SDS011;1009;51.436;6.972;2023-08-07T13:11:41;4.77;;;2.10;;
2011;SDS011;1009;51.436;6.972;2023-08-07T13:14:07;2.70;;;1.40;;
2011;SDS011;1009;51.436;6.972;2023-08-07T13:16:36;5.73;;;1.80;;
2011;SDS011;1009;51.436;6.972;2023-08-07T13:19:02;3.60;;;1.70;;
2011;SDS011;1009;51.436;6.972;2023-08-07T13:21:29;5.13;;;2.13;;
2011;SDS011;1009;51.436;6.972;2023-08-07T13:23:56;4.03;;;1.77;;
2011;SDS011;1009;51.436;6.972;2023-08-07T13:26:23;1.67;;;1.27;;
2011;SDS011;1009;51.436;6.972;2023-08-07T13:28:50;3.60;;;1.50;;
2011;SDS011;1009;51.436;6.972;2023-08-07T13:31:16;2.97;;;1.43;;
2011;SDS011;1009;51.436;6.972;2023-08-07T13:33:44;3.03;;;1.53;;
2011;SDS011;1009;51.436;6.972;2023-08-07T13:36:11;3.30;;;1.40;;
2011;SDS011;1009;51.436;6.972;2023-08-07T13:38:38;3.80;;;1.03;;
2011;SDS011;1009;51.436;6.972;2023-08-07T13:41:05;2.23;;;1.33;;
2011;SDS011;1009;51.436;6.972;2023-08-07T13:43:32;2.20;;;0.90;;
2011;SDS011;1009;51.436;6.972;2023-08-07T13:45:59;3.03;;;1.20;;
2011;SDS011;1009;51.436;6.972;2023-08-07T13:48:26;1.67;;;1.10;;
2011;SDS011;1009;51.436;6.972;2023-08-07T13:50:54;2.30;;;1.47;;
2011;SDS011;1009;51.436;6.972;2023-08-07T13:53:21;2.30;;;1.13;;
2011;SDS011;1009;51.436;6.972;2023-08-07T13:55:49;2.90;;;1.20;;
2011;SDS011;1009;51.436;6.972;2023-08-07T13:58:15;3.43;;;1.47;;
2011;SDS011;1009;51.436;6.972;2023-08-07T14:00:42;3.83;;;1.50;;
2011;SDS011;1009;51.436;6.972;2023-08-07T14:03:09;1.40;;;1.30;;
2011;SDS011;1009;51.436;6.972;2023-08-07T14:05:37;2.20;;;1.20;;
2011;SDS011;1009;51.436;6.972;2023-08-07T14:08:05;2.27;;;1.03;;
2011;SDS011;1009;51.436;6.972;2023-08-07T14:10:34;1.83;;;0.80;;
2011;SDS011;1009;51.436;6.972;2023-08-07T14:13:01;3.53;;;1.17;;
2011;SDS011;1009;51.436;6.972;2023-08-07T14:15:28;5.53;;;1.30;;
2011;SDS011;1009;51.436;6.972;2023-08-07T14:17:55;2.50;;;0.90;;
2011;SDS011;1009;51.436;6.972;2023-08-07T14:20:22;2.03;;;1.20;;
2011;SDS011;1009;51.436;6.972;2023-08-07T14:22:49;1.60;;;1.20;;
2011;SDS011;1009;51.436;6.972;2023-08-07T14:25:17;1.80;;;1.00;;
2011;SDS011;1009;51.436;6.972;2023-08-07T14:27:46;3.60;;;1.23;;
2011;SDS011;1009;51.436;6.972;2023-08-07T14:30:13;4.87;;;1.30;;
2011;SDS011;1009;51.436;6.972;2023-08-07T14:32:40;2.97;;;1.20;;
2011;SDS011;1009;51.436;6.972;2023-08-07T14:35:07;3.00;;;1.40;;
2011;SDS011;1009;51.436;6.972;2023-08-07T14:37:34;4.43;;;1.53;;
2011;SDS011;1009;51.436;6.972;2023-08-07T14:40:01;2.87;;;1.03;;
2011;SDS011;1009;51.436;6.972;2023-08-07T14:42:30;4.40;;;1.97;;
2011;SDS011;1009;51.436;6.972;2023-08-07T14:44:56;4.70;;;2.30;;
2011;SDS011;1009;51.436;6.972;2023-08-07T14:47:23;3.57;;;0.97;;
2011;SDS011;1009;51.436;6.972;2023-08-07T14:49:50;1.47;;;1.00;;
2011;SDS011;1009;51.436;6.972;2023-08-07T14:52:17;1.83;;;1.00;;
2011;SDS011;1009;51.436;6.972;2023-08-07T14:54:44;3.53;;;1.00;;
2011;SDS011;1009;51.436;6.972;2023-08-07T14:57:11;2.53;;;1.30;;
2011;SDS011;1009;51.436;6.972;2023-08-07T14:59:39;2.23;;;0.70;;
2011;SDS011;1009;51.436;6.972;2023-08-07T15:02:05;1.63;;;1.10;;
2011;SDS011;1009;51.436;6.972;2023-08-07T15:04:32;1.47;;;0.93;;
2011;SDS011;1009;51.436;6.972;2023-08-07T15:06:59;2.73;;;1.00;;
2011;SDS011;1009;51.436;6.972;2023-08-07T15:09:26;1.37;;;0.93;;
2011;SDS011;1009;51.436;6.972;2023-08-07T15:11:53;3.07;;;1.00;;
2011;SDS011;1009;51.436;6.972;2023-08-07T15:14:19;3.40;;;1.27;;